Milford, MI

12:38 PM EDT on April 28, 2017 (GMT -0400)
MMICMC | | Change Station

Elev 1013 ft 42.60 °N, 83.60 °W | Updated 6 hours ago

Partly Cloudy
Partly Cloudy
47.0 °F
Feels Like 43 °F
N
8.0
Wind Variable Wind from West

Today
High -- | Low -- °F
--% Chance of Precip.
Yesterday
High -- | Low -- °F
Precip. -- in
Pressure 29.98 in
Visibility 10.0 miles
Clouds Few 3300 ft
Few 11000 ft
Scattered Clouds 25000 ft
Windchill 43 °F
Dew Point 34 °F
Humidity 61%
Rainfall 0.05 in
Snow Depth Not available.
6:32 AM 8:31 PM
Waxing Crescent, 7% visible
METAR KPTK 281553Z 22013G16KT 10SM FEW033 FEW110 SCT250 13/05 A2997 RMK AO2 SLP151 T01330050
Pressure 29.98 in
Visibility 10.0 miles
Clouds Few 3300 ft
Few 11000 ft
Scattered Clouds 25000 ft
Windchill 43 °F
Dew Point 34 °F
Humidity 61%
Rainfall 0.05 in
Snow Depth Not available.
6:32 AM 8:31 PM
Waxing Crescent, 7% visible
METAR KPTK 281553Z 22013G16KT 10SM FEW033 FEW110 SCT250 13/05 A2997 RMK AO2 SLP151 T01330050

Get Severe Weather Alerts

Thanks for signing up!

Be on the lookout for a verification email in your inbox.

You'll start receiving the daily forecast at 8 AM.

×

10-Day Weather Forecast

Almanac

Astronomy

Apr. 28, 2017 Rise Set
Actual Time
Civil Twilight
Nautical Twilight
Astronomical Twilight
Moon
Length of Visible Light
Length of Day
Tomorrow will be .
, % of the Moon is Illuminated

Today's Extremes

State Highs State Lows

Community

WunderPhotos

WunderBlog® & News

Nearby

Air Quality

  Air Quality AQ Index Pollutant
Not available.

Snow Depth

Station Depth Elevation

Earthquake Activity

City Distance Mag. Time & Date
Minimum magnitude displayed is 2.5.

Coastal Water Temperatures

Place Temperature

Stations

Nearby Weather Stations

Station Location Temp. Windchill Dew Point Humidity Wind Precip. Elev Updated Type
                   

Watches & Warnings

There are currently no watches in effect.